createdAt,value
2022-12-18T00:01:27.033Z,-8.37
2022-12-18T00:03:54.757Z,-8.38
2022-12-18T00:06:22.972Z,-8.37
2022-12-18T00:08:50.042Z,-8.37
2022-12-18T00:11:19.297Z,-8.39
2022-12-18T00:13:46.939Z,-8.39
2022-12-18T00:16:17.703Z,-8.39
2022-12-18T00:18:44.597Z,-8.39
2022-12-18T00:21:13.094Z,-8.42
2022-12-18T00:23:42.411Z,-8.41
2022-12-18T00:26:15.978Z,-8.42
2022-12-18T00:28:44.458Z,-8.42
2022-12-18T08:23:28.919Z,-9.80
2022-12-18T08:25:59.883Z,-9.71
2022-12-18T08:28:33.270Z,-9.68
2022-12-18T08:31:03.302Z,-9.64
2022-12-18T08:33:34.945Z,-9.53
2022-12-18T08:36:04.781Z,-9.50
2022-12-18T08:38:38.700Z,-9.47
2022-12-18T08:41:13.762Z,-9.42
2022-12-18T08:44:00.465Z,-9.42
2022-12-18T08:46:36.368Z,-9.34
2022-12-18T08:49:10.305Z,-9.33
2022-12-18T08:51:37.552Z,-9.22
2022-12-18T08:54:06.713Z,-9.11
2022-12-18T08:56:58.517Z,-9.02
2022-12-18T08:59:41.703Z,-8.96
2022-12-18T09:02:11.947Z,-8.91
2022-12-18T09:04:46.766Z,-8.81
2022-12-18T09:07:16.749Z,-8.77
2022-12-18T09:09:46.500Z,-8.72
2022-12-18T09:12:13.209Z,-8.69
2022-12-18T09:14:43.364Z,-8.61
2022-12-18T09:17:10.477Z,-8.54
2022-12-18T09:19:45.638Z,-8.51
2022-12-18T09:22:26.575Z,-8.42
2022-12-18T09:24:54.938Z,-8.34
2022-12-18T09:27:28.123Z,-8.25
2022-12-18T09:29:55.616Z,-8.18
2022-12-18T09:32:25.416Z,-8.12
2022-12-18T09:34:53.272Z,-8.09
2022-12-18T09:37:22.286Z,-8.00
2022-12-18T09:39:50.699Z,-8.00
2022-12-18T09:42:22.044Z,-7.89
2022-12-18T09:45:15.987Z,-7.79
2022-12-18T09:47:49.560Z,-7.73
2022-12-18T09:50:36.466Z,-7.70
2022-12-18T09:53:18.742Z,-7.64
2022-12-18T09:55:55.633Z,-7.58
2022-12-18T09:58:38.815Z,-7.49
2022-12-18T10:01:13.947Z,-7.48
2022-12-18T10:03:46.169Z,-7.45
2022-12-18T10:06:21.543Z,-7.38
2022-12-18T10:09:25.998Z,-7.27
2022-12-18T10:12:11.925Z,-7.18
2022-12-18T10:14:54.669Z,-7.15
2022-12-18T10:18:04.021Z,-7.07
2022-12-18T10:20:35.324Z,-7.03
2022-12-18T10:23:32.578Z,-6.98
2022-12-18T10:26:07.737Z,-6.92
2022-12-18T10:28:40.113Z,-6.91
2022-12-18T10:31:24.568Z,-6.85
2022-12-18T10:33:59.695Z,-6.83
2022-12-18T10:36:26.360Z,-6.81
2022-12-18T10:39:20.768Z,-6.73
2022-12-18T10:41:48.810Z,-6.68
2022-12-18T10:44:28.296Z,-6.61
2022-12-18T10:47:11.832Z,-6.55
2022-12-18T10:49:51.703Z,-6.49
2022-12-18T10:52:21.023Z,-6.43
2022-12-18T10:54:54.122Z,-6.38
2022-12-18T10:57:25.964Z,-6.33
2022-12-18T10:59:56.515Z,-6.31
2022-12-18T11:02:38.728Z,-6.25
2022-12-18T11:05:31.501Z,-6.13
2022-12-18T11:08:22.678Z,-6.05
2022-12-18T11:10:52.584Z,-5.96
2022-12-18T11:13:25.881Z,-5.80
2022-12-18T11:15:53.814Z,-5.71
2022-12-18T11:18:30.214Z,-5.60
2022-12-18T11:21:08.538Z,-5.59
2022-12-18T11:23:47.455Z,-5.53
2022-12-18T11:26:15.615Z,-5.54
2022-12-18T11:29:10.196Z,-5.49
2022-12-18T11:31:43.017Z,-5.53
2022-12-18T11:34:31.685Z,-5.47
2022-12-18T11:37:04.742Z,-5.39
2022-12-18T11:39:40.919Z,-5.35
2022-12-18T11:45:56.406Z,-5.13
2022-12-18T11:48:45.950Z,-5.04
2022-12-18T11:51:27.249Z,-4.95
2022-12-18T11:53:54.318Z,-4.90
2022-12-18T11:56:47.442Z,-4.81
2022-12-18T11:59:50.632Z,-4.74
2022-12-18T12:02:35.459Z,-4.69
2022-12-18T12:09:42.120Z,-4.73
2022-12-18T12:12:51.132Z,-4.73
2022-12-18T12:16:08.156Z,-4.72
2022-12-18T12:18:50.333Z,-4.75
2022-12-18T12:21:31.365Z,-4.82
2022-12-18T12:24:06.427Z,-4.75
2022-12-18T12:27:25.073Z,-4.76
2022-12-18T12:30:21.019Z,-4.73
2022-12-18T12:33:06.732Z,-4.71
2022-12-18T12:36:15.723Z,-4.70
2022-12-18T12:38:51.612Z,-4.71
2022-12-18T12:41:45.207Z,-4.75
2022-12-18T12:44:39.478Z,-4.74
2022-12-18T12:47:28.176Z,-4.77
2022-12-18T12:50:01.323Z,-4.85
2022-12-18T12:52:30.467Z,-4.82
2022-12-18T12:55:14.890Z,-4.85
2022-12-18T12:57:50.056Z,-4.87
2022-12-18T13:00:20.842Z,-4.84
2022-12-18T13:03:09.548Z,-4.83
2022-12-18T13:05:51.964Z,-4.82
2022-12-18T13:12:57.038Z,-4.81
2022-12-18T13:15:32.643Z,-4.83
2022-12-18T13:18:09.714Z,-4.81
2022-12-18T13:20:53.771Z,-4.85
2022-12-18T13:23:28.487Z,-4.83
2022-12-18T13:26:09.052Z,-4.83
2022-12-18T13:28:59.401Z,-4.82
2022-12-18T13:31:59.691Z,-4.81
2022-12-18T13:35:17.452Z,-4.84
2022-12-18T13:37:56.021Z,-4.85
2022-12-18T13:40:46.015Z,-4.86
2022-12-18T13:43:21.474Z,-4.84
2022-12-18T13:46:22.632Z,-4.86
2022-12-18T13:48:56.523Z,-4.96
2022-12-18T13:51:26.867Z,-5.01
2022-12-18T13:53:58.649Z,-5.01
2022-12-18T13:56:29.328Z,-5.03
2022-12-18T13:59:23.037Z,-5.05
2022-12-18T14:02:14.304Z,-5.10
2022-12-18T14:04:47.678Z,-5.17
2022-12-18T14:07:43.754Z,-5.16
2022-12-18T14:13:09.453Z,-5.28
2022-12-18T14:15:43.860Z,-5.33
2022-12-18T14:18:49.165Z,-5.32
2022-12-18T14:21:30.655Z,-5.35
2022-12-18T14:26:51.985Z,-5.47
2022-12-18T14:30:15.678Z,-5.44
2022-12-18T14:33:06.548Z,-5.52
2022-12-18T14:35:39.767Z,-5.47
2022-12-18T14:38:24.924Z,-5.50
2022-12-18T14:41:02.062Z,-5.53
2022-12-18T14:43:41.330Z,-5.57
2022-12-18T14:46:34.256Z,-5.59
2022-12-18T14:49:29.665Z,-5.61
2022-12-18T14:52:01.336Z,-5.66
2022-12-18T14:54:37.753Z,-5.68
2022-12-18T14:57:36.874Z,-5.62
2022-12-18T15:00:10.444Z,-5.64
2022-12-18T15:02:41.358Z,-5.69
2022-12-18T15:05:45.630Z,-5.67
2022-12-18T15:08:30.354Z,-5.73
2022-12-18T15:11:00.229Z,-5.70
2022-12-18T15:13:34.961Z,-5.76
2022-12-18T15:16:13.812Z,-5.74
2022-12-18T15:27:38.977Z,-5.83
2022-12-18T15:30:30.665Z,-5.84
2022-12-18T15:33:36.144Z,-5.85
2022-12-18T15:36:15.708Z,-5.89
2022-12-18T15:39:11.673Z,-5.92
2022-12-18T15:42:12.414Z,-5.97
2022-12-18T15:44:41.388Z,-5.93
2022-12-18T15:47:20.443Z,-5.99
2022-12-18T15:50:06.479Z,-6.01
2022-12-18T15:52:51.379Z,-6.02
2022-12-18T15:55:48.616Z,-6.07
2022-12-18T15:58:30.181Z,-6.04
2022-12-18T16:01:47.790Z,-5.99
2022-12-18T16:04:31.551Z,-6.06
2022-12-18T16:07:25.596Z,-6.04
2022-12-18T16:10:03.865Z,-6.04
2022-12-18T16:17:36.914Z,-5.98
2022-12-18T16:21:05.080Z,-5.97
2022-12-18T16:33:07.469Z,-5.93
2022-12-18T16:36:22.823Z,-5.96
2022-12-18T16:39:28.356Z,-5.91
2022-12-18T16:42:50.592Z,-5.93
2022-12-18T16:45:34.103Z,-5.93
2022-12-18T16:52:30.888Z,-5.87
2022-12-18T17:02:40.874Z,-5.84
2022-12-18T17:08:03.438Z,-5.86
2022-12-18T17:10:46.054Z,-5.84
2022-12-18T17:17:24.259Z,-5.84
2022-12-18T17:20:26.109Z,-5.81
2022-12-18T17:34:18.814Z,-5.77
2022-12-18T17:37:01.096Z,-5.70
2022-12-18T17:39:55.427Z,-5.73
2022-12-18T17:47:16.517Z,-5.68
2022-12-18T18:01:51.611Z,-5.52
2022-12-18T18:04:18.991Z,-5.51
2022-12-18T18:06:45.662Z,-5.50
2022-12-18T18:09:15.999Z,-5.47
2022-12-18T18:12:04.122Z,-5.45
2022-12-18T18:14:30.991Z,-5.41
2022-12-18T18:17:01.995Z,-5.40
2022-12-18T18:19:32.867Z,-5.36
2022-12-18T18:21:59.579Z,-5.32
2022-12-18T18:24:27.230Z,-5.29
2022-12-18T18:26:54.005Z,-5.26
2022-12-18T18:29:23.920Z,-5.25
2022-12-18T18:31:54.013Z,-5.23
2022-12-18T18:34:25.980Z,-5.21
2022-12-18T18:36:52.746Z,-5.18
2022-12-18T18:39:22.048Z,-5.16
2022-12-18T18:41:48.918Z,-5.13
2022-12-18T18:44:21.646Z,-5.12
2022-12-18T18:46:57.278Z,-5.10
2022-12-18T18:49:27.257Z,-5.07
2022-12-18T18:51:56.015Z,-5.07
2022-12-18T18:54:22.596Z,-5.03
2022-12-18T18:59:37.113Z,-5.00
2022-12-18T19:02:04.578Z,-4.99
2022-12-18T19:04:33.528Z,-4.96
2022-12-18T19:07:00.422Z,-4.95
2022-12-18T19:09:27.617Z,-4.95
2022-12-18T19:12:16.323Z,-4.92
2022-12-18T19:14:44.207Z,-4.91
2022-12-18T19:17:10.822Z,-4.88
2022-12-18T19:19:37.419Z,-4.86
2022-12-18T19:22:03.908Z,-4.86
2022-12-18T19:24:33.422Z,-4.83
2022-12-18T19:27:00.014Z,-4.84
2022-12-18T19:29:26.612Z,-4.83
2022-12-18T19:31:53.214Z,-4.82
2022-12-18T19:34:22.325Z,-4.82
2022-12-18T19:36:49.661Z,-4.83
2022-12-18T19:39:17.915Z,-4.82
2022-12-18T19:41:46.018Z,-4.81
2022-12-18T19:44:14.787Z,-4.78
2022-12-18T19:46:45.960Z,-4.79
2022-12-18T19:49:17.474Z,-4.77
2022-12-18T19:51:47.563Z,-4.78
2022-12-18T19:54:17.983Z,-4.76
2022-12-18T19:56:47.493Z,-4.74
2022-12-18T19:59:14.445Z,-4.72
2022-12-18T20:01:41.196Z,-4.72
2022-12-18T20:04:08.410Z,-4.72
2022-12-18T20:06:46.688Z,-4.67
2022-12-18T20:09:13.856Z,-4.67
2022-12-18T20:11:41.879Z,-4.67
2022-12-18T20:14:10.539Z,-4.65
2022-12-18T20:16:37.489Z,-4.65
2022-12-18T20:19:05.167Z,-4.64
2022-12-18T20:21:31.841Z,-4.65
2022-12-18T20:23:59.955Z,-4.64
2022-12-18T20:26:27.225Z,-4.65
2022-12-18T20:28:54.582Z,-4.64
2022-12-18T20:31:22.183Z,-4.63
2022-12-18T20:33:49.925Z,-4.63
2022-12-18T20:36:23.530Z,-4.61
2022-12-18T20:38:55.305Z,-4.61
2022-12-18T20:41:24.281Z,-4.60
2022-12-18T20:43:51.209Z,-4.58
2022-12-18T20:46:18.115Z,-4.61
2022-12-18T20:48:45.805Z,-4.60
2022-12-18T20:51:16.042Z,-4.59
2022-12-18T20:53:43.154Z,-4.58
2022-12-18T20:56:12.659Z,-4.58
2022-12-18T20:58:39.192Z,-4.58
2022-12-18T21:01:09.288Z,-4.58
2022-12-18T21:03:35.978Z,-4.56
2022-12-18T21:06:03.830Z,-4.57
2022-12-18T21:08:30.513Z,-4.56
2022-12-18T21:11:31.868Z,-4.54
2022-12-18T21:13:58.502Z,-4.51
2022-12-18T21:16:25.143Z,-4.52
2022-12-18T21:18:54.463Z,-4.49
2022-12-18T21:21:26.380Z,-4.47
2022-12-18T21:23:54.464Z,-4.45
2022-12-18T21:26:26.683Z,-4.43
2022-12-18T21:28:55.566Z,-4.41
2022-12-18T21:31:25.011Z,-4.40
2022-12-18T21:33:51.907Z,-4.41
2022-12-18T21:36:21.131Z,-4.40
2022-12-18T21:38:47.713Z,-4.42
2022-12-18T21:41:41.748Z,-4.40
2022-12-18T21:44:11.791Z,-4.39
2022-12-18T21:46:41.307Z,-4.41
2022-12-18T21:49:09.252Z,-4.41
2022-12-18T21:51:36.651Z,-4.38
2022-12-18T21:54:03.412Z,-4.37
2022-12-18T21:56:44.912Z,-4.35
2022-12-18T21:59:14.765Z,-4.33
2022-12-18T22:01:41.694Z,-4.34
2022-12-18T22:04:08.898Z,-4.34
2022-12-18T22:06:35.842Z,-4.34
2022-12-18T22:09:04.767Z,-4.33
2022-12-18T22:11:31.433Z,-4.34
2022-12-18T22:13:57.856Z,-4.34
2022-12-18T22:16:24.798Z,-4.34
2022-12-18T22:18:51.326Z,-4.34
2022-12-18T22:21:29.988Z,-4.35
2022-12-18T22:23:59.250Z,-4.35
2022-12-18T22:26:27.835Z,-4.35
2022-12-18T22:29:14.656Z,-4.34
2022-12-18T22:31:41.612Z,-4.34
2022-12-18T22:34:08.199Z,-4.33
2022-12-18T22:36:37.687Z,-4.34
2022-12-18T22:39:09.257Z,-4.35
2022-12-18T22:41:35.897Z,-4.36
2022-12-18T22:44:02.757Z,-4.36
2022-12-18T22:46:32.753Z,-4.36
2022-12-18T22:49:01.395Z,-4.37
2022-12-18T22:51:27.878Z,-4.35
2022-12-18T22:53:55.506Z,-4.32
2022-12-18T22:56:23.328Z,-4.33
2022-12-18T22:58:51.356Z,-4.33
2022-12-18T23:01:23.816Z,-4.33
2022-12-18T23:03:51.230Z,-4.33
2022-12-18T23:06:19.824Z,-4.34
2022-12-18T23:08:50.536Z,-4.34
2022-12-18T23:11:21.699Z,-4.35
2022-12-18T23:13:48.505Z,-4.35
2022-12-18T23:16:17.679Z,-4.36
2022-12-18T23:18:45.107Z,-4.34
2022-12-18T23:21:18.261Z,-4.35
2022-12-18T23:23:48.604Z,-4.35
2022-12-18T23:26:18.359Z,-4.35
2022-12-18T23:28:45.970Z,-4.35
2022-12-18T23:31:27.362Z,-4.35
2022-12-18T23:33:57.313Z,-4.35
2022-12-18T23:36:24.922Z,-4.36
2022-12-18T23:38:58.303Z,-4.35
2022-12-18T23:41:26.673Z,-4.37
2022-12-18T23:43:54.205Z,-4.36
2022-12-18T23:46:25.459Z,-4.35
2022-12-18T23:48:52.938Z,-4.35
2022-12-18T23:51:25.607Z,-4.35
2022-12-18T23:53:53.807Z,-4.35
2022-12-18T23:56:21.241Z,-4.34
2022-12-18T23:58:48.939Z,-4.35
